Shandaken, NY

1:02 AM EDT on August 31, 2015 (GMT -0400)
Orange County | | Change Station
CLOSE
Current Station
Airport
Location: Montgomery,
Elevation: 364 ft
Nearby Weather Stations

Elev 364 ft 41.51 °N, 74.26 °W | Updated 1 hour ago

Mostly Cloudy
Mostly Cloudy
67 °F
Feels Like 67 °F
N
0
Wind Variable Wind from North

Today
High -- | Low -- °F
--% Chance of Precip.
Yesterday
High -- | Low -- °F
Precip. -- in
6:21 AM 7:33 PM
Full, 97% visible
Pressure 30.03 in
Visibility 6.0 miles
Clouds Few 7000 ft
Dew Point 65 °F
Humidity 93%
Rainfall 0.00 in
Snow Depth Not available.
UV 0 out of 12
Pollen 9.20 out of 12
Air Quality Not available.
Flu Activity Not available.
METAR KMGJ 310354Z AUTO 00000KT 6SM BR FEW070 19/18 A3004 RMK AO2 SLP169 T01940183 TSNO
Pressure 30.03 in
Visibility 6.0 miles
Clouds Few 7000 ft
Dew Point 65 °F
Humidity 93%
Rainfall 0.00 in
Snow Depth Not available.
UV 0 out of 12
Pollen 9.20 out of 12
Air Quality Not available.
Flu Activity Not available.
METAR KMGJ 310354Z AUTO 00000KT 6SM BR FEW070 19/18 A3004 RMK AO2 SLP169 T01940183 TSNO

10-Day Weather Forecast

×

Almanac

Astronomy

Aug. 31, 2015 Rise Set
Actual Time
Civil Twilight
Nautical Twilight
Astronomical Twilight
Moon
Length of Visible Light
Length of Day
Tomorrow will be .
, % of the Moon is Illuminated

Today's Extremes

State Highs State Lows

Community

WunderPhotos

Upload Photos

1,851,210 photos uploaded!

WunderBlogs® & News

Nearby

Air Quality

  Air Quality AQ Index Pollutant
Not available.

Snow Depth

Station Depth Elevation

Earthquake Activity

City Distance Mag. Time & Date
Minimum magnitude displayed is 2.5.

Coastal Water Temperatures

Place Temperature

Stations

Nearby Weather Stations

Station Location Temp. Windchill Dew Point Humidity Wind Precip. Elev Updated Type